Time;durP1;ratioP1;P1;durP2;ratioP2;P2;SDS_P1;SDS_P2;PMS_P1;PMS_P2;Temp;Humidity;BMP_temperature;BMP_pressure;BME280_temperature;BME280_humidity;BME280_pressure;Samples;Min_cycle;Max_cycle;Signal;HPM_P1;HPM_P2
2023/05/20 00:00:20;;;;;;;2.80;1.40;;;15.00;92.60;;;;;;4981168;28;20184;-66
2023/05/20 00:02:48;;;;;;;1.95;1.40;;;15.00;92.70;;;;;;4973254;28;20205;-66
2023/05/20 00:05:14;;;;;;;1.92;1.40;;;15.00;93.10;;;;;;4975349;28;20196;-64
2023/05/20 00:07:40;;;;;;;3.85;1.45;;;14.90;93.10;;;;;;4979866;28;21727;-65
2023/05/20 00:10:08;;;;;;;2.90;1.70;;;14.90;93.40;;;;;;4990225;28;20203;-67
2023/05/20 00:12:36;;;;;;;4.65;1.33;;;14.90;93.70;;;;;;4971686;28;20184;-65
2023/05/20 00:15:01;;;;;;;1.80;1.25;;;14.80;93.90;;;;;;4979463;28;20403;-66
2023/05/20 00:17:27;;;;;;;2.67;1.65;;;14.80;94.00;;;;;;4974258;28;20184;-67
2023/05/20 00:19:53;;;;;;;2.15;1.40;;;14.80;94.50;;;;;;4974959;28;20274;-64
2023/05/20 00:22:19;;;;;;;2.17;1.40;;;14.80;94.50;;;;;;4974762;28;20184;-67
2023/05/20 00:24:45;;;;;;;2.20;1.30;;;14.80;94.70;;;;;;4973592;28;20187;-67
2023/05/20 00:27:12;;;;;;;2.00;1.40;;;14.70;94.90;;;;;;4975557;28;20268;-66
2023/05/20 00:29:40;;;;;;;2.53;1.50;;;14.70;95.10;;;;;;4962889;28;20217;-67
2023/05/20 00:32:08;;;;;;;2.47;1.60;;;14.70;95.30;;;;;;4962024;28;20202;-67
2023/05/20 00:34:34;;;;;;;2.58;1.77;;;14.70;95.70;;;;;;4975317;28;20192;-67
2023/05/20 00:37:00;;;;;;;2.75;1.60;;;14.60;96.10;;;;;;4978838;28;20211;-66
2023/05/20 00:39:25;;;;;;;2.15;1.55;;;14.60;96.00;;;;;;4974170;28;20310;-66
2023/05/20 00:41:53;;;;;;;2.30;1.70;;;14.60;96.20;;;;;;4975106;28;20180;-67
2023/05/20 00:44:22;;;;;;;2.30;1.63;;;14.60;96.60;;;;;;4978381;28;20291;-67
2023/05/20 00:46:51;;;;;;;2.28;1.80;;;14.50;96.60;;;;;;4974956;28;20184;-65
2023/05/20 00:49:19;;;;;;;2.10;1.50;;;14.50;96.80;;;;;;4974851;28;20208;-68
2023/05/20 00:51:48;;;;;;;1.95;1.30;;;14.40;96.90;;;;;;4981064;28;20175;-63
2023/05/20 00:54:14;;;;;;;1.65;1.40;;;14.50;97.20;;;;;;4977030;28;20219;-67
2023/05/20 00:56:43;;;;;;;3.15;1.58;;;14.40;97.30;;;;;;4972093;28;20195;-65
2023/05/20 00:59:09;;;;;;;1.98;1.42;;;14.30;97.50;;;;;;4975269;28;20271;-67
2023/05/20 01:01:38;;;;;;;1.42;1.10;;;14.30;97.70;;;;;;4974947;28;20191;-63
2023/05/20 01:04:05;;;;;;;1.60;1.20;;;14.30;97.90;;;;;;4969465;28;20290;-67
2023/05/20 01:06:32;;;;;;;2.38;1.40;;;14.20;98.10;;;;;;4973721;28;20188;-66
2023/05/20 01:09:02;;;;;;;1.85;1.45;;;14.20;98.30;;;;;;4976434;28;20293;-66
2023/05/20 01:11:34;;;;;;;2.92;1.70;;;14.10;98.70;;;;;;4974037;28;20294;-65
2023/05/20 01:14:09;;;;;;;2.35;1.60;;;14.10;98.90;;;;;;4975138;28;20176;-67
2023/05/20 01:16:36;;;;;;;2.65;1.48;;;14.10;99.30;;;;;;4973567;28;20199;-64
2023/05/20 01:19:05;;;;;;;3.63;1.50;;;14.10;99.10;;;;;;4973366;28;20181;-65
2023/05/20 01:21:32;;;;;;;2.40;1.45;;;14.10;99.30;;;;;;4975090;28;20208;-63
2023/05/20 01:24:00;;;;;;;2.28;1.38;;;14.00;99.50;;;;;;4978253;28;20175;-62
2023/05/20 01:26:26;;;;;;;2.75;1.50;;;14.00;99.60;;;;;;4991331;28;20187;-63
2023/05/20 01:28:56;;;;;;;2.60;1.60;;;14.00;99.80;;;;;;4978166;28;20347;-66
2023/05/20 01:31:31;;;;;;;2.33;1.73;;;13.90;99.90;;;;;;4978991;28;20297;-66
2023/05/20 01:33:58;;;;;;;2.63;1.60;;;13.90;99.90;;;;;;4976526;28;20504;-64
2023/05/20 01:36:25;;;;;;;1.80;1.38;;;13.90;99.90;;;;;;4977003;28;20229;-63
2023/05/20 01:38:55;;;;;;;1.90;1.40;;;13.80;99.90;;;;;;4968875;28;20203;-66
2023/05/20 01:41:24;;;;;;;2.00;1.52;;;13.80;99.90;;;;;;4983540;28;20203;-66
2023/05/20 01:43:50;;;;;;;4.07;1.67;;;13.70;99.90;;;;;;4970294;28;20186;-67
2023/05/20 01:46:15;;;;;;;2.60;1.67;;;13.70;99.90;;;;;;4967515;28;20208;-65
2023/05/20 01:48:41;;;;;;;2.45;1.60;;;13.60;99.90;;;;;;4973092;28;20203;-66
2023/05/20 01:51:07;;;;;;;1.77;1.15;;;13.60;99.90;;;;;;4975382;28;20186;-67
2023/05/20 01:53:33;;;;;;;1.75;1.10;;;13.60;99.90;;;;;;4983847;28;20184;-65
2023/05/20 01:55:58;;;;;;;1.80;1.35;;;13.50;99.90;;;;;;4984464;28;20278;-66
2023/05/20 01:58:24;;;;;;;1.20;1.10;;;13.50;99.90;;;;;;4976306;28;20195;-61
2023/05/20 02:00:50;;;;;;;3.08;1.40;;;13.50;99.90;;;;;;4989278;28;20172;-67
2023/05/20 02:03:18;;;;;;;1.55;1.38;;;13.50;99.90;;;;;;4976535;28;20246;-67
2023/05/20 02:05:44;;;;;;;1.98;1.40;;;13.50;99.90;;;;;;4977279;28;20274;-67
2023/05/20 02:08:10;;;;;;;1.98;1.40;;;13.50;99.90;;;;;;4976509;28;20176;-64
2023/05/20 02:10:35;;;;;;;1.63;1.30;;;13.40;99.90;;;;;;4977462;28;20183;-67
2023/05/20 02:13:01;;;;;;;1.70;1.30;;;13.40;99.90;;;;;;4984820;28;20199;-65
2023/05/20 02:15:31;;;;;;;2.00;1.20;;;13.40;99.90;;;;;;4971265;28;20198;-66
2023/05/20 02:17:57;;;;;;;1.77;1.33;;;13.40;99.90;;;;;;4977217;28;20181;-67
2023/05/20 02:20:23;;;;;;;2.22;1.40;;;13.30;99.90;;;;;;4979676;28;20254;-66
2023/05/20 02:22:50;;;;;;;2.30;1.38;;;13.30;99.90;;;;;;4977121;28;20229;-66
2023/05/20 02:25:16;;;;;;;1.90;1.38;;;13.30;99.90;;;;;;4995227;28;20198;-64
2023/05/20 02:27:42;;;;;;;1.83;1.40;;;13.30;99.90;;;;;;4974056;28;20196;-67
2023/05/20 02:30:08;;;;;;;1.70;1.20;;;13.20;99.90;;;;;;4980731;28;20243;-66
2023/05/20 02:32:38;;;;;;;2.20;1.50;;;13.20;99.90;;;;;;4974611;28;20181;-67
2023/05/20 02:35:04;;;;;;;2.63;1.48;;;13.10;99.90;;;;;;4967455;28;20223;-66
2023/05/20 02:37:29;;;;;;;1.90;1.30;;;13.10;99.90;;;;;;4976584;28;20278;-65
2023/05/20 02:39:55;;;;;;;2.05;1.38;;;13.10;99.90;;;;;;4980781;28;20185;-67
2023/05/20 02:42:21;;;;;;;1.48;1.30;;;13.00;99.90;;;;;;4977189;28;20184;-66
2023/05/20 02:44:49;;;;;;;1.85;1.35;;;13.00;99.90;;;;;;4976829;28;20176;-66
2023/05/20 02:47:16;;;;;;;1.52;1.20;;;13.00;99.90;;;;;;4977359;28;20223;-67
2023/05/20 02:49:42;;;;;;;2.58;1.20;;;13.00;99.90;;;;;;4977978;28;20200;-67
2023/05/20 02:52:07;;;;;;;1.50;1.33;;;13.00;99.90;;;;;;4982254;28;20176;-67
2023/05/20 02:54:33;;;;;;;1.58;1.20;;;12.90;99.90;;;;;;4982106;28;20241;-67
2023/05/20 02:56:59;;;;;;;1.88;1.17;;;12.90;99.90;;;;;;4973614;28;20180;-65
2023/05/20 02:59:25;;;;;;;2.13;1.20;;;12.90;99.90;;;;;;4979601;28;20184;-67
2023/05/20 03:01:51;;;;;;;1.60;1.27;;;12.90;99.90;;;;;;4991310;28;20171;-67
2023/05/20 03:04:20;;;;;;;2.15;1.40;;;12.90;99.90;;;;;;4980946;28;20180;-66
2023/05/20 03:06:48;;;;;;;1.60;1.25;;;12.80;99.90;;;;;;4977573;28;20266;-67
2023/05/20 03:09:17;;;;;;;2.03;1.15;;;12.90;99.90;;;;;;4978726;28;20262;-67
2023/05/20 03:11:47;;;;;;;2.33;1.27;;;12.80;99.90;;;;;;4974009;28;20180;-66
2023/05/20 03:14:12;;;;;;;2.63;1.30;;;12.80;99.90;;;;;;4963806;28;20172;-67
2023/05/20 03:16:41;;;;;;;1.75;1.13;;;12.80;99.90;;;;;;4976557;28;20315;-66
2023/05/20 03:19:07;;;;;;;2.42;1.65;;;12.80;99.90;;;;;;4968449;28;20204;-61
2023/05/20 03:21:33;;;;;;;1.65;1.33;;;12.80;99.90;;;;;;4983256;28;20176;-66
2023/05/20 03:23:58;;;;;;;2.63;1.38;;;12.80;99.90;;;;;;4977000;28;20299;-62
2023/05/20 03:26:26;;;;;;;2.38;1.50;;;12.80;99.90;;;;;;4971700;28;20201;-67
2023/05/20 03:28:54;;;;;;;2.20;1.40;;;12.80;99.90;;;;;;4964099;28;20218;-66
2023/05/20 03:31:22;;;;;;;3.55;1.27;;;12.80;99.90;;;;;;4976522;28;20192;-66
2023/05/20 03:33:48;;;;;;;3.53;1.20;;;12.80;99.90;;;;;;4973447;28;20177;-67
2023/05/20 03:36:16;;;;;;;2.55;1.50;;;12.90;99.90;;;;;;4977740;28;20198;-66
2023/05/20 03:38:41;;;;;;;3.97;1.30;;;12.80;99.90;;;;;;4978520;28;20306;-67
2023/05/20 03:41:09;;;;;;;2.10;1.50;;;12.90;99.90;;;;;;4969427;28;20222;-67
2023/05/20 03:43:35;;;;;;;1.38;1.23;;;12.80;99.90;;;;;;4982047;28;20171;-66
2023/05/20 03:46:00;;;;;;;2.85;1.30;;;12.80;99.90;;;;;;4977031;28;20176;-67
2023/05/20 03:48:26;;;;;;;2.33;1.33;;;12.80;99.90;;;;;;4984112;28;20222;-66
2023/05/20 03:50:54;;;;;;;2.75;1.30;;;12.80;99.90;;;;;;4980086;28;20283;-66
2023/05/20 03:53:22;;;;;;;2.95;1.25;;;12.80;99.90;;;;;;4974605;28;20198;-66
2023/05/20 03:55:49;;;;;;;2.35;1.40;;;12.80;99.90;;;;;;4975679;28;20234;-67
2023/05/20 03:58:19;;;;;;;2.13;1.38;;;12.80;99.90;;;;;;4977756;28;20266;-66
2023/05/20 04:00:46;;;;;;;2.63;1.35;;;12.70;99.90;;;;;;4983514;28;20177;-66
2023/05/20 04:03:14;;;;;;;2.10;1.30;;;12.80;99.90;;;;;;4976323;28;20196;-67
2023/05/20 04:05:42;;;;;;;1.85;1.33;;;12.80;99.90;;;;;;4974644;28;20264;-66
2023/05/20 04:08:15;;;;;;;2.40;1.60;;;12.80;99.90;;;;;;4992435;28;20176;-66
2023/05/20 04:10:43;;;;;;;3.00;1.42;;;12.70;99.90;;;;;;4986971;28;20168;-66
2023/05/20 04:13:14;;;;;;;2.25;1.40;;;12.70;99.90;;;;;;4982007;28;20203;-64
2023/05/20 04:15:43;;;;;;;1.85;1.38;;;12.70;99.90;;;;;;4974930;28;20254;-64
2023/05/20 04:18:09;;;;;;;1.95;1.52;;;12.70;99.90;;;;;;4979171;28;20196;-66
2023/05/20 04:20:37;;;;;;;2.40;1.30;;;12.60;99.90;;;;;;4976179;28;20203;-65
2023/05/20 04:23:03;;;;;;;2.10;1.20;;;12.60;99.90;;;;;;4975166;28;20204;-63
2023/05/20 04:25:30;;;;;;;1.70;1.33;;;12.60;99.90;;;;;;4979260;28;20176;-66
2023/05/20 04:27:58;;;;;;;2.63;1.40;;;12.60;99.90;;;;;;4981642;28;20180;-66
2023/05/20 04:30:24;;;;;;;2.55;1.33;;;12.60;99.90;;;;;;4974704;28;20232;-66
2023/05/20 04:32:52;;;;;;;3.03;1.50;;;12.60;99.90;;;;;;4976398;28;20219;-63
2023/05/20 04:35:24;;;;;;;5.35;1.48;;;12.60;99.90;;;;;;4982841;28;20267;-66
2023/05/20 04:37:54;;;;;;;2.42;1.50;;;12.60;99.90;;;;;;4981023;28;20203;-65
2023/05/20 04:40:20;;;;;;;1.90;1.48;;;12.60;99.90;;;;;;4976626;28;20179;-65
2023/05/20 04:42:45;;;;;;;2.20;1.30;;;12.60;99.90;;;;;;4976281;28;20195;-66
2023/05/20 04:45:12;;;;;;;2.15;1.40;;;12.60;99.90;;;;;;4979983;28;20176;-67
2023/05/20 04:47:38;;;;;;;2.63;1.40;;;12.70;99.90;;;;;;4975280;28;20219;-67
2023/05/20 04:50:10;;;;;;;5.53;1.45;;;12.60;99.90;;;;;;4972871;28;20195;-66
2023/05/20 04:52:37;;;;;;;2.10;1.40;;;12.70;99.90;;;;;;4999883;28;20179;-67
2023/05/20 04:55:09;;;;;;;2.10;1.30;;;12.70;99.90;;;;;;4983887;28;20248;-67
2023/05/20 04:57:35;;;;;;;2.67;1.50;;;12.70;99.90;;;;;;4985287;28;20244;-67
2023/05/20 05:00:06;;;;;;;1.70;1.48;;;12.70;99.90;;;;;;4985715;28;20184;-67
2023/05/20 05:02:34;;;;;;;2.90;2.10;;;12.70;99.90;;;;;;4973876;28;20192;-67
2023/05/20 05:05:00;;;;;;;2.38;1.30;;;12.80;99.90;;;;;;4974116;28;20466;-64
2023/05/20 05:07:25;;;;;;;2.03;1.50;;;12.80;99.90;;;;;;4980594;28;20218;-67
2023/05/20 05:09:51;;;;;;;5.22;1.35;;;12.80;99.90;;;;;;4975159;28;20203;-67
2023/05/20 05:12:16;;;;;;;1.73;1.50;;;12.90;99.90;;;;;;4974187;28;20276;-67
2023/05/20 05:14:44;;;;;;;2.58;1.65;;;12.90;99.90;;;;;;4977591;28;20242;-66
2023/05/20 05:17:10;;;;;;;2.92;1.70;;;13.10;99.90;;;;;;4972406;28;20283;-66
2023/05/20 05:19:35;;;;;;;1.70;1.30;;;13.10;99.90;;;;;;4974440;28;20396;-66
2023/05/20 05:22:01;;;;;;;1.98;1.40;;;13.10;99.90;;;;;;4980020;28;20183;-65
2023/05/20 05:24:29;;;;;;;2.20;1.40;;;13.20;99.90;;;;;;4978156;28;20330;-66
2023/05/20 05:26:55;;;;;;;1.90;1.40;;;13.30;99.90;;;;;;4974224;28;20218;-67
2023/05/20 05:29:21;;;;;;;2.13;1.40;;;13.40;99.90;;;;;;4985717;28;20230;-67
2023/05/20 05:31:49;;;;;;;2.00;1.52;;;13.50;99.90;;;;;;4980198;28;20200;-65
2023/05/20 05:34:17;;;;;;;2.08;1.40;;;13.60;99.90;;;;;;4984421;28;20180;-67
2023/05/20 05:36:43;;;;;;;1.75;1.60;;;13.60;99.90;;;;;;4988381;28;20239;-67
2023/05/20 05:39:08;;;;;;;1.42;1.17;;;13.70;99.90;;;;;;4976372;28;20300;-67
2023/05/20 05:41:34;;;;;;;3.08;1.45;;;13.80;99.90;;;;;;4988169;28;20270;-67
2023/05/20 05:44:00;;;;;;;2.00;1.20;;;13.90;99.90;;;;;;4975224;28;20299;-67
2023/05/20 05:46:28;;;;;;;1.73;1.23;;;13.90;99.90;;;;;;4989817;28;20742;-62
2023/05/20 05:48:58;;;;;;;1.70;1.23;;;14.00;99.90;;;;;;4982775;28;20200;-63
2023/05/20 05:51:27;;;;;;;3.60;1.50;;;14.10;99.90;;;;;;4976058;28;20271;-64
2023/05/20 05:53:53;;;;;;;2.28;1.48;;;14.20;99.90;;;;;;4978549;28;20184;-67
2023/05/20 05:56:18;;;;;;;2.88;1.40;;;14.20;99.90;;;;;;4975874;28;20191;-63
2023/05/20 05:58:44;;;;;;;2.38;1.23;;;14.40;99.90;;;;;;4973936;28;20203;-67
2023/05/20 06:01:12;;;;;;;1.77;1.30;;;14.50;99.90;;;;;;4970792;28;20271;-67
2023/05/20 06:03:38;;;;;;;2.13;1.52;;;14.50;99.90;;;;;;4976906;28;20208;-68
2023/05/20 06:06:03;;;;;;;1.63;1.30;;;14.60;99.90;;;;;;4976857;28;20262;-69
2023/05/20 06:08:29;;;;;;;2.45;1.42;;;14.60;99.90;;;;;;4981948;28;20215;-66
2023/05/20 06:10:57;;;;;;;1.95;1.63;;;14.70;99.90;;;;;;4979616;28;20175;-71
2023/05/20 06:13:23;;;;;;;1.85;1.60;;;14.80;99.90;;;;;;4978498;28;20172;-69
2023/05/20 06:15:52;;;;;;;1.80;1.50;;;14.80;99.90;;;;;;4968057;28;20192;-67
2023/05/20 06:18:20;;;;;;;1.73;1.50;;;14.90;99.90;;;;;;4979018;28;20179;-65
2023/05/20 06:20:46;;;;;;;1.60;1.50;;;14.90;99.90;;;;;;4974867;28;20199;-63
2023/05/20 06:23:11;;;;;;;2.25;1.58;;;15.00;99.90;;;;;;4978796;28;20168;-69
2023/05/20 06:25:37;;;;;;;1.77;1.50;;;15.10;99.90;;;;;;4978290;28;20172;-67
2023/05/20 06:28:07;;;;;;;2.85;1.75;;;15.10;99.90;;;;;;4978364;28;20176;-70
2023/05/20 06:30:32;;;;;;;1.33;1.23;;;15.10;99.90;;;;;;4983752;28;20183;-67
2023/05/20 06:33:00;;;;;;;1.75;1.40;;;15.20;99.90;;;;;;4988398;28;20210;-67
2023/05/20 06:35:28;;;;;;;4.10;2.85;;;15.30;99.90;;;;;;4974476;28;20184;-65
2023/05/20 06:37:54;;;;;;;10.50;8.60;;;15.30;99.90;;;;;;4976460;28;20192;-67
2023/05/20 06:40:19;;;;;;;5.03;3.72;;;15.40;99.90;;;;;;4977109;28;20191;-66
2023/05/20 06:42:47;;;;;;;3.47;2.80;;;15.50;99.90;;;;;;4974098;28;20179;-67
2023/05/20 06:45:15;;;;;;;2.65;2.22;;;15.50;99.90;;;;;;4977095;28;20192;-65
2023/05/20 06:47:40;;;;;;;5.22;3.88;;;15.60;99.90;;;;;;4976696;28;20187;-66
2023/05/20 06:50:06;;;;;;;6.57;4.28;;;15.70;99.90;;;;;;4966442;28;20223;-62
2023/05/20 06:52:32;;;;;;;3.58;3.03;;;15.80;99.90;;;;;;4987396;28;20252;-66
2023/05/20 06:54:58;;;;;;;3.25;2.50;;;15.90;99.90;;;;;;4970652;28;20203;-66
2023/05/20 06:57:23;;;;;;;2.55;2.30;;;16.10;99.90;;;;;;4987650;28;20196;-65
2023/05/20 06:59:51;;;;;;;2.00;1.77;;;16.20;99.90;;;;;;4978640;28;20188;-66
2023/05/20 07:02:16;;;;;;;2.67;1.80;;;16.20;99.90;;;;;;4977313;28;20188;-65
2023/05/20 07:04:42;;;;;;;3.20;2.70;;;16.30;99.90;;;;;;4974768;28;20191;-65
2023/05/20 07:07:08;;;;;;;2.10;1.83;;;16.40;99.90;;;;;;4977603;28;20176;-66
2023/05/20 07:09:36;;;;;;;2.08;1.65;;;16.50;99.90;;;;;;4974483;28;20306;-63
2023/05/20 07:12:02;;;;;;;2.70;2.00;;;16.50;99.90;;;;;;4986430;28;20198;-66
2023/05/20 07:14:30;;;;;;;3.28;1.95;;;16.60;99.90;;;;;;4975546;28;20208;-66
2023/05/20 07:16:55;;;;;;;2.30;1.80;;;16.70;99.90;;;;;;4973600;28;20217;-66
2023/05/20 07:19:21;;;;;;;2.10;1.73;;;16.70;99.90;;;;;;5011509;28;20257;-64
2023/05/20 07:21:48;;;;;;;1.90;1.70;;;16.70;99.90;;;;;;4976179;28;20227;-65
2023/05/20 07:24:16;;;;;;;2.40;1.65;;;16.80;99.90;;;;;;4977311;28;20361;-63
2023/05/20 07:26:42;;;;;;;2.33;1.63;;;16.90;99.90;;;;;;4973589;28;20299;-68
2023/05/20 07:29:15;;;;;;;2.10;1.50;;;17.00;99.90;;;;;;4967799;28;20223;-66
2023/05/20 07:31:43;;;;;;;2.47;1.75;;;17.00;99.90;;;;;;4981451;28;20176;-67
2023/05/20 07:34:11;;;;;;;2.10;1.83;;;17.10;99.90;;;;;;4980255;28;20179;-67
2023/05/20 07:36:42;;;;;;;2.28;1.80;;;17.20;99.90;;;;;;4976025;28;20176;-61
2023/05/20 07:39:09;;;;;;;3.65;1.80;;;17.30;99.90;;;;;;5008798;28;20249;-67
2023/05/20 07:41:35;;;;;;;1.73;1.63;;;17.40;99.90;;;;;;4977913;28;20176;-68
2023/05/20 07:44:03;;;;;;;2.10;1.85;;;17.50;99.90;;;;;;4988295;28;20208;-67
2023/05/20 07:46:29;;;;;;;1.90;1.63;;;17.60;99.90;;;;;;4970561;28;20184;-63
2023/05/20 07:48:57;;;;;;;2.75;2.15;;;17.60;99.90;;;;;;4975441;28;20204;-67
2023/05/20 07:51:25;;;;;;;2.70;2.10;;;17.70;99.90;;;;;;4977659;28;20176;-64
2023/05/20 07:53:51;;;;;;;2.30;1.80;;;17.70;99.90;;;;;;4974083;28;20187;-67
2023/05/20 07:56:17;;;;;;;3.10;2.30;;;17.80;99.90;;;;;;4982422;28;20203;-70
2023/05/20 07:58:54;;;;;;;5.85;4.47;;;17.90;99.90;;;;;;4981086;28;20188;-71
2023/05/20 08:01:20;;;;;;;3.28;2.75;;;18.00;99.90;;;;;;4975808;28;20194;-67
2023/05/20 08:03:46;;;;;;;2.78;2.28;;;18.00;99.90;;;;;;4971205;28;20180;-67
2023/05/20 08:06:14;;;;;;;2.55;2.00;;;18.10;99.90;;;;;;5008411;28;20283;-67
2023/05/20 08:08:40;;;;;;;2.38;2.17;;;18.20;99.90;;;;;;4974398;28;20295;-66
2023/05/20 08:11:08;;;;;;;2.50;1.80;;;18.20;99.90;;;;;;4976144;28;20262;-67
2023/05/20 08:13:36;;;;;;;2.35;1.55;;;18.30;99.90;;;;;;4975689;28;20211;-67
2023/05/20 08:16:05;;;;;;;2.53;2.00;;;18.30;99.90;;;;;;4968372;28;20197;-66
2023/05/20 08:18:31;;;;;;;2.28;1.85;;;18.30;99.90;;;;;;4976018;28;20184;-67
2023/05/20 08:20:57;;;;;;;2.25;1.80;;;18.40;99.90;;;;;;4975608;28;20196;-67
2023/05/20 08:23:26;;;;;;;1.77;1.67;;;18.40;99.90;;;;;;4972131;28;20185;-67
2023/05/20 08:25:51;;;;;;;2.42;1.92;;;18.50;99.90;;;;;;4960347;28;20188;-67
2023/05/20 08:28:17;;;;;;;2.42;1.60;;;18.60;99.90;;;;;;4975447;28;20212;-57
2023/05/20 08:30:43;;;;;;;2.00;1.80;;;18.70;99.90;;;;;;4968700;28;20186;-67
2023/05/20 08:33:11;;;;;;;1.60;1.50;;;18.80;99.90;;;;;;4982803;28;20184;-67
2023/05/20 08:35:39;;;;;;;1.90;1.60;;;18.90;99.90;;;;;;4986626;28;20246;-67
2023/05/20 08:38:05;;;;;;;2.00;1.80;;;19.00;99.90;;;;;;4972272;28;20243;-67
2023/05/20 08:40:33;;;;;;;2.53;1.83;;;19.10;99.90;;;;;;4974344;28;20180;-68
2023/05/20 08:43:01;;;;;;;4.10;1.90;;;19.30;99.90;;;;;;4970622;28;20303;-67
2023/05/20 08:45:33;;;;;;;3.75;1.75;;;19.40;99.90;;;;;;4968589;28;20189;-67
2023/05/20 08:48:04;;;;;;;2.10;1.70;;;19.40;99.90;;;;;;4977071;28;20185;-68
2023/05/20 08:50:31;;;;;;;2.35;1.55;;;19.50;99.90;;;;;;4974634;28;20211;-66
2023/05/20 08:52:58;;;;;;;2.33;1.90;;;19.60;99.90;;;;;;4991279;28;20210;-67
2023/05/20 08:55:28;;;;;;;3.55;1.70;;;19.70;99.90;;;;;;4975307;28;20180;-68
2023/05/20 08:57:56;;;;;;;2.58;1.80;;;19.80;99.90;;;;;;4989459;28;20199;-67
2023/05/20 09:00:26;;;;;;;2.25;1.73;;;19.90;99.90;;;;;;4976535;28;20172;-67
2023/05/20 09:02:52;;;;;;;2.40;1.70;;;20.00;99.90;;;;;;4975654;28;20184;-67
2023/05/20 09:05:21;;;;;;;3.35;1.58;;;20.10;99.90;;;;;;4960193;28;20477;-68
2023/05/20 09:07:46;;;;;;;3.40;1.60;;;20.10;99.90;;;;;;4987943;28;20180;-67
2023/05/20 09:10:12;;;;;;;2.42;1.85;;;20.30;99.90;;;;;;4979018;28;20335;-67
2023/05/20 09:12:40;;;;;;;4.00;2.00;;;20.30;99.90;;;;;;4978910;28;20176;-67
2023/05/20 09:15:07;;;;;;;2.58;1.95;;;20.40;99.90;;;;;;4975483;28;20204;-68
2023/05/20 09:17:39;;;;;;;3.22;1.90;;;20.50;99.90;;;;;;4967622;28;20176;-67
2023/05/20 09:20:09;;;;;;;2.33;1.60;;;20.60;99.90;;;;;;4970699;28;20213;-67
2023/05/20 09:22:37;;;;;;;3.00;1.80;;;20.60;99.90;;;;;;4998248;28;20171;-68
2023/05/20 09:25:12;;;;;;;2.13;1.80;;;20.70;99.90;;;;;;4977812;28;20176;-67
2023/05/20 09:27:42;;;;;;;2.42;2.10;;;20.80;99.90;;;;;;4975968;28;20255;-65
2023/05/20 09:30:11;;;;;;;1.70;1.60;;;20.90;99.90;;;;;;4990621;28;20208;-67
2023/05/20 09:32:40;;;;;;;2.40;1.80;;;21.00;99.90;;;;;;4976497;28;20200;-67
2023/05/20 09:35:06;;;;;;;2.40;1.70;;;21.10;99.90;;;;;;4981582;28;20183;-67
2023/05/20 09:37:36;;;;;;;2.30;1.80;;;21.20;99.90;;;;;;4995786;28;20254;-67
2023/05/20 09:40:04;;;;;;;1.73;1.60;;;21.30;99.90;;;;;;4988815;28;20172;-68
2023/05/20 09:42:55;;;;;;;2.55;2.00;;;21.40;99.90;;;;;;4986218;28;20177;-65
2023/05/20 09:45:23;;;;;;;2.20;1.92;;;21.50;99.90;;;;;;4971375;28;20191;-66
2023/05/20 09:47:54;;;;;;;2.03;1.75;;;21.60;99.90;;;;;;4978166;28;20220;-67
2023/05/20 09:50:23;;;;;;;2.50;1.95;;;21.70;99.90;;;;;;4986553;28;20222;-66
2023/05/20 09:52:50;;;;;;;1.92;1.60;;;21.80;99.90;;;;;;4986437;28;20172;-66
2023/05/20 09:55:22;;;;;;;3.30;1.83;;;21.80;99.90;;;;;;4978655;28;20282;-67
2023/05/20 09:57:52;;;;;;;2.40;1.90;;;21.90;99.90;;;;;;4984660;28;20176;-65
2023/05/20 10:00:22;;;;;;;2.50;2.03;;;22.00;99.90;;;;;;4993460;28;20179;-66
2023/05/20 10:02:52;;;;;;;2.30;2.10;;;22.10;99.90;;;;;;4978721;28;20255;-66
2023/05/20 10:05:21;;;;;;;2.85;2.03;;;22.10;99.90;;;;;;4988521;28;20194;-66
2023/05/20 10:08:14;;;;;;;2.13;1.90;;;22.20;99.90;;;;;;4982776;28;20173;-67
2023/05/20 10:10:49;;;;;;;2.10;1.83;;;22.20;99.90;;;;;;4974925;28;20200;-65
2023/05/20 10:13:39;;;;;;;2.13;1.92;;;22.20;99.90;;;;;;4976803;28;20182;-66
2023/05/20 10:16:11;;;;;;;2.50;1.90;;;22.20;99.90;;;;;;4987211;28;20188;-66
2023/05/20 10:19:13;;;;;;;2.40;2.08;;;22.20;99.90;;;;;;4986800;28;20239;-67
2023/05/20 10:21:41;;;;;;;2.45;1.92;;;22.20;99.90;;;;;;4987680;28;20187;-67
2023/05/20 10:24:13;;;;;;;3.17;2.42;;;22.20;99.90;;;;;;4978036;28;20223;-66
2023/05/20 10:26:41;;;;;;;2.28;2.08;;;22.20;99.90;;;;;;4971530;28;20190;-67
2023/05/20 10:29:21;;;;;;;2.20;2.00;;;22.20;99.90;;;;;;4985812;28;20207;-64
2023/05/20 10:31:51;;;;;;;2.85;2.00;;;22.20;99.90;;;;;;4969748;28;20193;-66
2023/05/20 10:34:21;;;;;;;2.20;1.88;;;22.20;99.90;;;;;;4986203;28;20203;-64
2023/05/20 10:36:53;;;;;;;2.42;2.10;;;22.20;99.90;;;;;;4974083;28;20527;-66
2023/05/20 10:39:24;;;;;;;1.90;1.70;;;22.20;99.90;;;;;;4974845;28;20209;-66
2023/05/20 10:41:50;;;;;;;2.53;2.08;;;22.30;99.90;;;;;;4990988;28;20193;-66
2023/05/20 10:44:16;;;;;;;2.28;1.80;;;22.40;99.90;;;;;;4984468;28;20259;-63
2023/05/20 10:46:41;;;;;;;2.53;2.13;;;22.40;99.90;;;;;;4977422;28;20298;-65
2023/05/20 10:49:18;;;;;;;2.20;2.00;;;22.50;99.90;;;;;;4983328;28;20227;-66
2023/05/20 10:51:45;;;;;;;4.13;2.17;;;22.60;99.90;;;;;;4981221;28;20210;-68
2023/05/20 10:54:14;;;;;;;2.10;1.95;;;22.60;99.90;;;;;;4981092;28;20200;-68
2023/05/20 10:56:50;;;;;;;2.22;2.03;;;22.70;99.90;;;;;;4989813;28;20207;-66
2023/05/20 10:59:16;;;;;;;2.03;1.83;;;22.70;99.90;;;;;;4972383;28;20293;-66
2023/05/20 11:01:42;;;;;;;2.22;2.03;;;22.80;99.90;;;;;;4993431;28;20322;-65
2023/05/20 11:04:08;;;;;;;2.40;2.20;;;22.90;99.90;;;;;;4977244;28;20278;-66
2023/05/20 11:06:34;;;;;;;2.30;2.10;;;23.00;99.90;;;;;;4984677;28;20275;-66
2023/05/20 11:09:08;;;;;;;2.25;1.92;;;23.10;99.90;;;;;;4976880;28;20339;-63
2023/05/20 11:11:37;;;;;;;2.47;2.28;;;23.20;99.90;;;;;;4974270;28;20172;-67
2023/05/20 11:14:03;;;;;;;2.60;2.10;;;23.30;99.90;;;;;;4981334;28;20218;-68
2023/05/20 11:16:28;;;;;;;2.60;2.40;;;23.30;99.90;;;;;;4969621;28;20227;-68
2023/05/20 11:18:57;;;;;;;2.50;2.00;;;23.40;99.90;;;;;;4976882;28;20247;-69
2023/05/20 11:21:25;;;;;;;3.28;2.08;;;23.40;99.90;;;;;;4977300;28;20176;-67
2023/05/20 11:23:53;;;;;;;2.38;2.05;;;23.50;99.90;;;;;;4982569;28;20270;-67
2023/05/20 11:26:20;;;;;;;2.72;2.25;;;23.50;99.90;;;;;;4990945;28;20184;-68
2023/05/20 11:28:46;;;;;;;2.10;1.90;;;23.40;99.90;;;;;;5001900;28;20191;-68
2023/05/20 11:31:11;;;;;;;3.28;2.40;;;23.40;99.90;;;;;;4980889;28;20174;-68
2023/05/20 11:33:43;;;;;;;2.75;2.10;;;23.20;99.90;;;;;;4972466;28;20176;-68
2023/05/20 11:36:13;;;;;;;2.13;1.92;;;23.20;99.90;;;;;;4957667;28;20215;-68
2023/05/20 11:38:40;;;;;;;2.40;2.20;;;23.10;99.90;;;;;;4987484;28;20190;-64
2023/05/20 11:41:05;;;;;;;2.35;2.15;;;23.00;99.90;;;;;;4970604;28;20195;-65
2023/05/20 11:43:32;;;;;;;2.70;2.50;;;23.00;99.90;;;;;;4976231;28;20183;-67
2023/05/20 11:45:58;;;;;;;2.65;2.40;;;22.90;99.90;;;;;;4988027;28;20218;-68
2023/05/20 11:48:24;;;;;;;2.70;2.50;;;22.90;99.90;;;;;;4979359;28;20187;-68
2023/05/20 11:50:55;;;;;;;2.97;2.50;;;22.80;99.90;;;;;;4989012;28;20187;-68
2023/05/20 11:53:22;;;;;;;2.50;2.30;;;22.80;99.90;;;;;;4976209;28;20180;-68
2023/05/20 11:55:52;;;;;;;2.50;2.28;;;22.80;99.90;;;;;;4976437;28;20238;-68
2023/05/20 11:58:25;;;;;;;9.38;2.25;;;22.80;99.90;;;;;;4975333;28;20183;-68
2023/05/20 12:00:51;;;;;;;2.80;2.50;;;22.80;99.90;;;;;;4958005;28;20248;-68
2023/05/20 12:03:20;;;;;;;3.55;2.53;;;22.80;99.90;;;;;;4980884;28;20180;-68
2023/05/20 12:05:49;;;;;;;3.05;2.33;;;22.90;99.90;;;;;;4961730;28;20180;-68
2023/05/20 12:08:17;;;;;;;3.58;2.40;;;22.90;99.90;;;;;;4976091;28;20442;-68
2023/05/20 12:10:46;;;;;;;2.90;2.30;;;22.90;99.90;;;;;;4986644;28;20210;-68
2023/05/20 12:13:16;;;;;;;2.65;2.00;;;23.00;99.90;;;;;;4989990;28;20350;-67
2023/05/20 12:15:44;;;;;;;2.67;2.20;;;23.00;99.90;;;;;;4987106;28;20258;-68
2023/05/20 12:18:10;;;;;;;3.28;2.20;;;23.00;99.90;;;;;;4979200;28;20208;-68
2023/05/20 12:20:38;;;;;;;2.50;2.30;;;23.00;99.90;;;;;;4975511;28;20293;-69
2023/05/20 12:23:06;;;;;;;2.50;2.30;;;23.00;99.90;;;;;;4975534;28;20180;-63
2023/05/20 12:25:31;;;;;;;4.70;2.35;;;23.00;99.90;;;;;;4993606;28;20190;-68
2023/05/20 12:27:58;;;;;;;2.83;2.53;;;23.00;99.90;;;;;;4983338;28;20200;-68
2023/05/20 12:30:26;;;;;;;3.58;2.70;;;23.00;99.90;;;;;;4975116;28;20195;-68
2023/05/20 12:32:54;;;;;;;2.50;2.30;;;23.10;99.90;;;;;;4975477;28;20243;-67
2023/05/20 12:35:39;;;;;;;2.70;2.50;;;23.20;99.90;;;;;;4974619;28;20203;-68
2023/05/20 12:38:05;;;;;;;2.88;2.67;;;23.40;99.90;;;;;;4976366;28;20187;-66
2023/05/20 12:40:34;;;;;;;3.30;2.58;;;23.30;99.90;;;;;;4975813;28;20238;-67
2023/05/20 12:43:01;;;;;;;4.20;2.15;;;23.30;99.90;;;;;;4975042;28;20203;-68
2023/05/20 12:45:26;;;;;;;2.60;2.30;;;23.30;99.90;;;;;;4975530;28;20184;-68
2023/05/20 12:47:56;;;;;;;3.03;2.47;;;23.20;99.90;;;;;;4974870;28;20191;-67
2023/05/20 12:50:24;;;;;;;2.33;2.05;;;23.20;99.90;;;;;;4975455;28;20294;-68